createdAt,value
2018-07-22T00:02:05.482Z,86.86
2018-07-22T00:07:10.321Z,86.67
2018-07-22T00:12:15.045Z,87.67
2018-07-22T00:17:19.781Z,87.44
2018-07-22T00:22:24.589Z,88.20
2018-07-22T00:27:29.423Z,87.86
2018-07-22T00:32:34.179Z,86.98
2018-07-22T00:37:39.365Z,87.65
2018-07-22T00:42:43.773Z,87.18
2018-07-22T00:47:48.620Z,87.22
2018-07-22T00:52:53.540Z,87.13
2018-07-22T00:57:58.213Z,86.94
2018-07-22T01:03:02.907Z,87.10
2018-07-22T01:08:07.612Z,86.52
2018-07-22T01:13:12.498Z,87.78
2018-07-22T01:18:17.192Z,87.76
2018-07-22T01:23:21.983Z,87.82
2018-07-22T01:28:26.722Z,87.26
2018-07-22T01:33:31.444Z,87.62
2018-07-22T01:38:35.977Z,86.60
2018-07-22T01:43:40.642Z,86.77
2018-07-22T01:48:45.373Z,86.71
2018-07-22T01:53:50.140Z,86.24
2018-07-22T01:58:54.860Z,86.23
2018-07-22T02:03:59.606Z,85.84
2018-07-22T02:09:05.389Z,86.06
2018-07-22T02:14:10.166Z,86.65
2018-07-22T02:19:14.894Z,86.23
2018-07-22T02:24:19.620Z,86.06
2018-07-22T02:29:24.252Z,86.52
2018-07-22T02:34:28.967Z,85.80
2018-07-22T02:39:33.745Z,86.07
2018-07-22T02:44:38.420Z,86.25
2018-07-22T02:49:43.272Z,86.70
2018-07-22T02:54:48.082Z,86.14
2018-07-22T02:59:53.005Z,85.97
2018-07-22T03:04:57.701Z,85.62
2018-07-22T03:10:02.514Z,85.74
2018-07-22T03:15:07.436Z,86.44
2018-07-22T03:20:12.264Z,85.94
2018-07-22T03:25:16.928Z,86.22
2018-07-22T03:30:21.793Z,85.37
2018-07-22T03:35:26.421Z,86.04
2018-07-22T03:40:31.287Z,85.69
2018-07-22T03:45:35.933Z,85.44
2018-07-22T03:50:40.672Z,85.06
2018-07-22T03:55:45.399Z,84.95
2018-07-22T04:00:50.249Z,85.27
2018-07-22T04:05:55.065Z,86.73
2018-07-22T04:10:59.953Z,86.88
2018-07-22T04:16:04.687Z,86.67
2018-07-22T04:21:09.425Z,86.34
2018-07-22T04:26:14.151Z,86.57
2018-07-22T04:31:18.913Z,86.29
2018-07-22T04:36:23.626Z,85.25
2018-07-22T04:41:28.359Z,85.72
2018-07-22T04:46:33.356Z,85.52
2018-07-22T04:51:38.141Z,84.75
2018-07-22T04:56:42.945Z,84.75
2018-07-22T05:01:47.621Z,84.38
2018-07-22T05:06:52.337Z,84.87
2018-07-22T05:11:57.120Z,84.28
2018-07-22T05:17:01.852Z,85.11
2018-07-22T05:22:06.727Z,84.24
2018-07-22T05:27:11.573Z,83.84
2018-07-22T05:32:16.283Z,84.22
2018-07-22T05:37:21.047Z,84.20
2018-07-22T05:42:25.731Z,84.34
2018-07-22T05:47:30.434Z,84.85
2018-07-22T05:52:35.357Z,84.38
2018-07-22T05:57:40.249Z,84.00
2018-07-22T06:02:45.046Z,83.97
2018-07-22T06:07:49.971Z,83.14
2018-07-22T06:12:54.746Z,83.27
2018-07-22T06:17:59.590Z,83.70
2018-07-22T06:23:04.397Z,82.34
2018-07-22T06:28:09.132Z,81.68
2018-07-22T06:33:13.899Z,81.89
2018-07-22T06:38:18.738Z,81.81
2018-07-22T06:43:23.456Z,82.15
2018-07-22T06:48:28.245Z,80.64
2018-07-22T06:53:33.051Z,81.13
2018-07-22T06:58:37.756Z,81.96
2018-07-22T07:03:42.525Z,80.12
2018-07-22T07:08:47.282Z,79.64
2018-07-22T07:13:52.014Z,78.81
2018-07-22T07:18:56.763Z,79.21
2018-07-22T07:24:01.246Z,78.16
2018-07-22T07:29:06.037Z,77.41
2018-07-22T07:34:10.788Z,76.00
2018-07-22T07:39:15.506Z,74.82
2018-07-22T07:44:20.433Z,74.50
2018-07-22T07:49:25.103Z,73.77
2018-07-22T07:54:30.278Z,73.04
2018-07-22T07:59:34.719Z,70.33
2018-07-22T08:04:39.484Z,70.42
2018-07-22T08:09:44.256Z,68.94
2018-07-22T08:14:49.052Z,66.48
2018-07-22T08:19:53.899Z,62.39
2018-07-22T08:24:58.690Z,60.54
2018-07-22T08:30:03.610Z,58.19
2018-07-22T08:35:08.364Z,59.60
2018-07-22T08:40:13.144Z,60.85
2018-07-22T08:45:17.948Z,58.58
2018-07-22T08:50:22.786Z,58.64
2018-07-22T08:55:27.547Z,59.25
2018-07-22T09:00:32.265Z,58.61
2018-07-22T09:05:36.963Z,58.29
2018-07-22T09:10:41.686Z,56.24
2018-07-22T09:15:46.634Z,57.76
2018-07-22T09:20:51.383Z,54.62
2018-07-22T09:25:56.257Z,53.28
2018-07-22T09:31:01.130Z,54.01
2018-07-22T09:36:06.008Z,55.62
2018-07-22T09:41:10.694Z,55.55
2018-07-22T09:46:15.565Z,53.38
2018-07-22T09:51:20.345Z,52.78
2018-07-22T09:56:31.733Z,52.00
2018-07-22T10:01:36.609Z,51.98
2018-07-22T10:06:41.460Z,49.16
2018-07-22T10:11:46.305Z,46.41
2018-07-22T10:16:51.043Z,45.94
2018-07-22T10:21:55.895Z,45.96
2018-07-22T10:27:00.625Z,48.72
2018-07-22T10:32:05.569Z,48.86
2018-07-22T10:37:10.327Z,49.53
2018-07-22T10:42:15.074Z,46.56
2018-07-22T10:47:19.986Z,48.19
2018-07-22T10:52:24.892Z,46.96
2018-07-22T10:57:29.757Z,47.25
2018-07-22T11:02:34.498Z,45.86
2018-07-22T11:07:39.421Z,47.68
2018-07-22T11:12:44.221Z,47.78
2018-07-22T11:17:49.062Z,46.32
2018-07-22T11:22:54.873Z,45.44
2018-07-22T11:27:59.604Z,46.37
2018-07-22T11:33:04.487Z,46.44
2018-07-22T11:38:09.370Z,46.27
2018-07-22T11:43:14.166Z,45.73
2018-07-22T11:48:18.893Z,44.96
2018-07-22T11:53:23.816Z,45.58
2018-07-22T11:58:28.573Z,45.36
2018-07-22T12:03:33.319Z,46.40
2018-07-22T12:08:38.126Z,46.43
2018-07-22T12:13:42.880Z,45.48
2018-07-22T12:18:47.595Z,46.30
2018-07-22T12:23:52.294Z,45.04
2018-07-22T12:28:57.120Z,45.94
2018-07-22T12:34:01.867Z,46.36
2018-07-22T12:39:13.962Z,46.23
2018-07-22T12:44:18.833Z,45.39
2018-07-22T12:49:23.802Z,45.92
2018-07-22T12:54:29.477Z,44.76
2018-07-22T12:59:34.368Z,44.44
2018-07-22T13:04:39.081Z,45.80
2018-07-22T13:09:44.149Z,46.72
2018-07-22T13:14:48.899Z,43.90
2018-07-22T13:19:54.689Z,44.15
2018-07-22T13:24:59.645Z,43.65
2018-07-22T13:30:05.281Z,42.78
2018-07-22T13:35:10.225Z,43.12
2018-07-22T13:40:14.965Z,42.20
2018-07-22T13:45:19.735Z,42.25
2018-07-22T13:50:24.493Z,39.27
2018-07-22T13:55:29.354Z,39.27
2018-07-22T14:00:34.418Z,40.74
2018-07-22T14:05:39.276Z,42.18
2018-07-22T14:10:44.129Z,42.34
2018-07-22T14:15:49.022Z,41.03
2018-07-22T14:20:53.750Z,44.26
2018-07-22T14:25:58.584Z,43.95
2018-07-22T14:31:03.367Z,44.57
2018-07-22T14:36:08.145Z,45.83
2018-07-22T14:41:12.925Z,44.51
2018-07-22T14:46:17.780Z,44.31
2018-07-22T14:51:22.597Z,43.19
2018-07-22T14:56:27.521Z,42.25
2018-07-22T15:01:32.338Z,43.20
2018-07-22T15:06:37.114Z,41.34
2018-07-22T15:11:42.574Z,43.89
2018-07-22T15:16:47.364Z,44.65
2018-07-22T15:21:52.191Z,41.96
2018-07-22T15:26:57.276Z,43.09
2018-07-22T15:32:02.217Z,43.66
2018-07-22T15:37:07.210Z,43.18
2018-07-22T15:42:12.033Z,44.01
2018-07-22T15:47:16.784Z,44.82
2018-07-22T15:52:21.568Z,46.36
2018-07-22T15:57:26.643Z,47.04
2018-07-22T16:02:31.528Z,47.51
2018-07-22T16:07:36.687Z,46.61
2018-07-22T16:12:41.708Z,46.43
2018-07-22T16:17:46.418Z,46.59
2018-07-22T16:22:51.210Z,46.46
2018-07-22T16:27:56.252Z,44.81
2018-07-22T16:33:00.947Z,43.81
2018-07-22T16:38:05.732Z,43.98
2018-07-22T16:43:10.523Z,44.41
2018-07-22T16:48:15.657Z,45.10
2018-07-22T16:53:20.446Z,46.10
2018-07-22T16:58:25.320Z,49.02
2018-07-22T17:03:30.066Z,59.43
2018-07-22T17:08:34.923Z,67.89
2018-07-22T17:13:39.682Z,73.14
2018-07-22T17:18:45.007Z,69.39
2018-07-22T17:23:50.319Z,73.90
2018-07-22T17:28:55.304Z,74.93
2018-07-22T17:34:00.051Z,76.17
2018-07-22T17:39:07.260Z,75.41
2018-07-22T17:44:12.166Z,75.69
2018-07-22T17:49:16.879Z,76.65
2018-07-22T17:54:21.643Z,78.43
2018-07-22T17:59:26.979Z,79.58
2018-07-22T18:04:31.716Z,77.46
2018-07-22T18:09:36.525Z,79.30
2018-07-22T18:14:41.292Z,78.74
2018-07-22T18:19:46.192Z,78.13
2018-07-22T18:24:50.962Z,79.05
2018-07-22T18:29:55.776Z,81.48
2018-07-22T18:35:00.767Z,81.46
2018-07-22T18:40:05.933Z,80.16
2018-07-22T18:45:11.592Z,83.40
2018-07-22T18:50:16.640Z,83.43
2018-07-22T18:55:22.145Z,83.41
2018-07-22T19:00:26.988Z,83.51
2018-07-22T19:05:32.340Z,85.02
2018-07-22T19:10:38.399Z,83.35
2018-07-22T19:15:43.683Z,84.57
2018-07-22T19:20:48.673Z,85.03
2018-07-22T19:25:54.627Z,85.97
2018-07-22T19:30:59.520Z,85.16
2018-07-22T19:36:04.528Z,85.56
2018-07-22T19:41:09.376Z,86.44
2018-07-22T19:46:14.213Z,87.28
2018-07-22T19:51:19.231Z,87.35
2018-07-22T19:56:24.160Z,87.45
2018-07-22T20:01:28.946Z,87.02
2018-07-22T20:06:33.824Z,87.68
2018-07-22T20:11:38.586Z,87.91
2018-07-22T20:16:43.364Z,87.39
2018-07-22T20:21:48.440Z,87.39
2018-07-22T20:26:54.267Z,87.24
2018-07-22T20:31:59.149Z,87.77
2018-07-22T20:37:03.909Z,88.52
2018-07-22T20:42:08.960Z,88.03
2018-07-22T20:47:13.795Z,89.03
2018-07-22T20:52:18.633Z,88.35
2018-07-22T20:57:23.525Z,87.75
2018-07-22T21:02:28.316Z,88.49
2018-07-22T21:07:33.105Z,88.73
2018-07-22T21:13:25.914Z,88.86
2018-07-22T21:18:30.669Z,89.47
2018-07-22T21:23:35.518Z,89.52
2018-07-22T21:28:40.376Z,88.77
2018-07-22T21:33:45.140Z,88.30
2018-07-22T21:38:49.964Z,89.01
2018-07-22T21:43:54.717Z,88.63
2018-07-22T21:48:59.381Z,89.47
2018-07-22T21:54:04.105Z,89.22
2018-07-22T21:59:09.057Z,89.30
2018-07-22T22:04:13.889Z,88.88
2018-07-22T22:09:18.670Z,88.75
2018-07-22T22:14:23.616Z,89.49
2018-07-22T22:19:28.448Z,89.14
2018-07-22T22:24:33.220Z,89.06
2018-07-22T22:29:38.078Z,89.36
2018-07-22T22:34:42.857Z,89.88
2018-07-22T22:39:47.316Z,90.21
2018-07-22T22:44:52.025Z,89.62
2018-07-22T22:49:56.778Z,90.41
2018-07-22T22:55:01.573Z,90.12
2018-07-22T23:00:07.588Z,90.23
2018-07-22T23:05:12.396Z,91.11
2018-07-22T23:10:17.176Z,90.38
2018-07-22T23:15:22.074Z,90.36
2018-07-22T23:20:26.843Z,91.15
2018-07-22T23:25:31.638Z,90.82
2018-07-22T23:30:36.398Z,90.78
2018-07-22T23:35:41.076Z,90.52
2018-07-22T23:40:45.769Z,91.46
2018-07-22T23:45:50.492Z,91.20
2018-07-22T23:50:55.274Z,90.58
2018-07-22T23:56:00.026Z,90.67
